createdAt,value
2023-01-17T00:02:01.983Z,7.78
2023-01-17T00:04:31.667Z,6.78
2023-01-17T00:06:59.075Z,6.25
2023-01-17T00:09:26.557Z,7.30
2023-01-17T00:11:54.471Z,8.10
2023-01-17T00:14:22.476Z,8.10
2023-01-17T00:16:50.025Z,7.75
2023-01-17T00:19:17.899Z,7.22
2023-01-17T00:21:47.750Z,8.18
2023-01-17T00:24:15.693Z,6.35
2023-01-17T00:26:48.870Z,8.05
2023-01-17T00:29:16.314Z,7.20
2023-01-17T00:31:43.891Z,8.68
2023-01-17T00:34:11.374Z,8.05
2023-01-17T00:36:38.788Z,7.07
2023-01-17T00:39:07.694Z,8.43
2023-01-17T00:41:35.126Z,7.68
2023-01-17T00:44:02.640Z,9.40
2023-01-17T00:46:30.170Z,8.13
2023-01-17T00:48:57.645Z,10.25
2023-01-17T00:51:26.398Z,7.65
2023-01-17T00:53:53.830Z,8.40
2023-01-17T00:56:22.919Z,8.60
2023-01-17T00:58:50.438Z,6.45
2023-01-17T01:01:18.073Z,6.57
2023-01-17T01:03:45.568Z,6.80
2023-01-17T01:06:13.038Z,10.65
2023-01-17T01:08:40.579Z,7.28
2023-01-17T01:11:09.474Z,9.73
2023-01-17T01:13:38.386Z,7.75
2023-01-17T01:16:06.243Z,9.93
2023-01-17T01:18:33.714Z,8.05
2023-01-17T01:21:03.452Z,8.88
2023-01-17T01:23:30.944Z,8.77
2023-01-17T01:25:58.402Z,8.18
2023-01-17T01:28:26.471Z,8.45
2023-01-17T01:30:55.937Z,7.05
2023-01-17T01:33:23.509Z,6.60
2023-01-17T01:35:52.442Z,10.10
2023-01-17T01:38:21.971Z,7.53
2023-01-17T01:43:21.222Z,7.43
2023-01-17T01:45:53.061Z,8.00
2023-01-17T01:48:33.867Z,7.20
2023-01-17T01:51:06.342Z,7.32
2023-01-17T01:53:38.118Z,8.85
2023-01-17T01:56:09.928Z,6.80
2023-01-17T01:58:38.753Z,7.70
2023-01-17T02:01:08.355Z,8.20
2023-01-17T02:03:40.007Z,7.20
2023-01-17T02:06:19.279Z,5.32
2023-01-17T02:08:46.822Z,7.03
2023-01-17T02:11:14.566Z,5.85
2023-01-17T02:13:43.169Z,7.25
2023-01-17T02:16:19.746Z,7.30
2023-01-17T02:18:59.611Z,6.13
2023-01-17T02:21:31.862Z,7.40
2023-01-17T02:24:40.398Z,5.47
2023-01-17T02:27:20.028Z,5.72
2023-01-17T02:30:13.802Z,7.00
2023-01-17T02:32:59.958Z,6.70
2023-01-17T02:35:34.203Z,7.10
2023-01-17T02:38:10.659Z,6.85
2023-01-17T02:40:42.888Z,6.15
2023-01-17T02:43:14.866Z,6.88
2023-01-17T02:45:42.534Z,5.70
2023-01-17T02:48:15.331Z,7.68
2023-01-17T02:51:00.627Z,5.82
2023-01-17T02:53:39.514Z,6.05
2023-01-17T02:56:20.842Z,6.13
2023-01-17T02:59:06.971Z,7.85
2023-01-17T03:01:44.273Z,4.68
2023-01-17T03:04:18.533Z,5.20
2023-01-17T03:06:52.081Z,5.35
2023-01-17T03:09:21.055Z,5.20
2023-01-17T03:11:49.095Z,5.32
2023-01-17T03:14:17.016Z,6.32
2023-01-17T03:16:45.255Z,5.97
2023-01-17T03:19:14.298Z,5.90
2023-01-17T03:21:42.445Z,4.95
2023-01-17T03:24:10.035Z,4.60
2023-01-17T03:26:37.767Z,5.25
2023-01-17T03:29:05.302Z,5.05
2023-01-17T03:31:32.783Z,4.93
2023-01-17T03:34:00.279Z,6.65
2023-01-17T03:36:29.303Z,5.38
2023-01-17T03:38:56.768Z,7.22
2023-01-17T03:41:24.261Z,6.28
2023-01-17T03:43:51.718Z,7.13
2023-01-17T03:46:21.197Z,5.75
2023-01-17T03:48:50.037Z,5.93
2023-01-17T03:51:18.296Z,5.85
2023-01-17T03:53:47.707Z,7.03
2023-01-17T03:56:15.234Z,6.68
2023-01-17T03:58:42.862Z,5.82
2023-01-17T04:01:10.975Z,7.57
2023-01-17T04:03:38.788Z,6.97
2023-01-17T04:06:06.810Z,6.20
2023-01-17T04:08:34.363Z,7.40
2023-01-17T04:11:03.535Z,7.07
2023-01-17T04:13:31.207Z,7.78
2023-01-17T04:15:58.880Z,7.13
2023-01-17T04:18:26.625Z,11.50
2023-01-17T04:20:54.965Z,8.52
2023-01-17T04:23:22.450Z,10.25
2023-01-17T04:25:49.944Z,8.65
2023-01-17T04:28:18.953Z,8.80
2023-01-17T04:30:46.585Z,7.50
2023-01-17T04:33:14.332Z,8.13
2023-01-17T04:35:41.813Z,9.77
2023-01-17T04:38:09.355Z,6.95
2023-01-17T04:40:36.930Z,7.47
2023-01-17T04:43:04.418Z,7.63
2023-01-17T04:45:34.219Z,7.63
2023-01-17T04:48:03.996Z,9.13
2023-01-17T04:50:31.675Z,7.13
2023-01-17T04:53:00.194Z,9.13
2023-01-17T04:55:27.768Z,8.07
2023-01-17T04:57:55.240Z,9.07
2023-01-17T05:00:24.148Z,11.57
2023-01-17T05:02:53.362Z,12.10
2023-01-17T05:05:20.865Z,13.93
2023-01-17T05:07:54.230Z,14.65
2023-01-17T05:10:23.207Z,13.15
2023-01-17T05:12:55.204Z,12.70
2023-01-17T05:15:23.148Z,12.43
2023-01-17T05:17:53.520Z,12.45
2023-01-17T05:20:23.101Z,14.05
2023-01-17T05:22:53.083Z,14.73
2023-01-17T05:25:20.679Z,13.13
2023-01-17T05:27:48.504Z,16.77
2023-01-17T05:30:17.339Z,14.15
2023-01-17T05:32:48.761Z,14.93
2023-01-17T05:35:19.880Z,17.88
2023-01-17T05:37:48.857Z,18.13
2023-01-17T05:40:17.061Z,17.08
2023-01-17T05:42:48.258Z,16.95
2023-01-17T05:45:17.327Z,13.65
2023-01-17T05:47:45.429Z,17.30
2023-01-17T05:50:15.028Z,18.83
2023-01-17T05:52:50.020Z,16.30
2023-01-17T05:55:21.436Z,22.58
2023-01-17T05:57:49.419Z,18.77
2023-01-17T06:00:17.892Z,18.50
2023-01-17T06:02:45.823Z,18.02
2023-01-17T06:05:14.137Z,19.30
2023-01-17T06:07:45.637Z,21.33
2023-01-17T06:10:14.371Z,22.60
2023-01-17T06:12:43.175Z,20.10
2023-01-17T06:15:11.941Z,19.27
2023-01-17T06:17:39.632Z,21.47
2023-01-17T06:20:09.439Z,23.35
2023-01-17T06:22:37.024Z,20.88
2023-01-17T06:25:06.680Z,20.13
2023-01-17T06:27:34.402Z,24.58
2023-01-17T06:30:03.118Z,21.15
2023-01-17T06:32:30.572Z,19.58
2023-01-17T06:34:58.039Z,23.58
2023-01-17T06:37:25.507Z,19.38
2023-01-17T06:39:52.984Z,23.90
2023-01-17T06:42:22.096Z,22.17
2023-01-17T06:44:50.253Z,21.55
2023-01-17T06:47:17.867Z,18.58
2023-01-17T06:49:45.372Z,17.90
2023-01-17T06:52:13.406Z,18.13
2023-01-17T06:54:40.949Z,17.90
2023-01-17T06:57:08.471Z,21.75
2023-01-17T06:59:37.400Z,22.73
2023-01-17T07:02:04.865Z,18.98
2023-01-17T07:04:35.038Z,18.40
2023-01-17T07:07:03.255Z,24.08
2023-01-17T07:09:30.696Z,21.52
2023-01-17T07:11:58.635Z,21.70
2023-01-17T07:14:26.361Z,19.50
2023-01-17T07:16:55.568Z,20.92
2023-01-17T07:19:23.551Z,25.67
2023-01-17T07:21:52.195Z,24.10
2023-01-17T07:24:21.286Z,21.42
2023-01-17T07:26:49.076Z,21.48
2023-01-17T07:29:16.701Z,22.33
2023-01-17T07:31:44.586Z,24.95
2023-01-17T07:34:13.601Z,24.45
2023-01-17T07:36:41.306Z,22.92
2023-01-17T07:39:10.431Z,22.60
2023-01-17T07:41:38.056Z,24.20
2023-01-17T07:44:05.718Z,27.83
2023-01-17T07:46:33.203Z,28.02
2023-01-17T07:49:01.111Z,27.20
2023-01-17T07:51:30.538Z,22.90
2023-01-17T07:53:58.351Z,27.38
2023-01-17T07:56:26.443Z,28.40
2023-01-17T07:58:53.971Z,23.10
2023-01-17T08:01:21.700Z,27.92
2023-01-17T08:03:51.593Z,22.48
2023-01-17T08:06:21.354Z,28.05
2023-01-17T08:08:50.656Z,24.63
2023-01-17T08:11:18.262Z,25.15
2023-01-17T08:13:45.731Z,23.40
2023-01-17T08:16:13.670Z,22.27
2023-01-17T08:18:41.227Z,20.10
2023-01-17T08:21:14.075Z,25.65
2023-01-17T08:23:41.647Z,25.77
2023-01-17T08:26:10.996Z,23.67
2023-01-17T08:28:38.628Z,21.40
2023-01-17T08:31:10.136Z,25.17
2023-01-17T08:33:38.087Z,23.80
2023-01-17T08:36:06.195Z,23.92
2023-01-17T08:38:34.164Z,23.50
2023-01-17T08:41:01.861Z,22.48
2023-01-17T08:43:31.044Z,22.38
2023-01-17T08:45:58.683Z,23.58
2023-01-17T08:48:26.582Z,25.83
2023-01-17T08:50:54.091Z,23.63
2023-01-17T08:53:22.177Z,28.58
2023-01-17T08:55:49.663Z,23.58
2023-01-17T08:58:17.355Z,27.25
2023-01-17T09:00:46.570Z,21.58
2023-01-17T09:03:14.607Z,21.20
2023-01-17T09:05:42.301Z,21.15
2023-01-17T09:08:09.805Z,23.05
2023-01-17T09:10:37.516Z,24.33
2023-01-17T09:13:06.724Z,27.52
2023-01-17T09:15:34.222Z,19.63
2023-01-17T09:18:03.185Z,22.63
2023-01-17T09:20:30.683Z,20.55
2023-01-17T09:22:58.220Z,20.42
2023-01-17T09:25:25.695Z,18.00
2023-01-17T09:27:53.552Z,21.52
2023-01-17T09:30:22.069Z,19.17
2023-01-17T09:32:52.986Z,17.50
2023-01-17T09:35:21.980Z,18.88
2023-01-17T09:37:50.144Z,17.80
2023-01-17T09:40:20.320Z,18.90
2023-01-17T09:42:52.110Z,20.23
2023-01-17T09:45:20.773Z,21.23
2023-01-17T09:47:50.677Z,21.65
2023-01-17T09:50:27.669Z,22.20
2023-01-17T09:52:58.743Z,19.63
2023-01-17T09:55:28.578Z,21.52
2023-01-17T09:58:01.370Z,21.52
2023-01-17T10:00:52.919Z,22.92
2023-01-17T10:03:42.771Z,23.08
2023-01-17T10:06:39.744Z,20.55
2023-01-17T10:09:41.092Z,20.90
2023-01-17T10:12:26.502Z,22.02
2023-01-17T10:15:09.328Z,23.30
2023-01-17T10:17:46.682Z,19.73
2023-01-17T10:20:32.224Z,22.30
2023-01-17T10:23:14.355Z,25.23
2023-01-17T10:25:48.122Z,33.97
2023-01-17T10:28:19.033Z,28.48
2023-01-17T10:30:49.427Z,31.83
2023-01-17T10:33:20.547Z,39.55
2023-01-17T10:36:08.006Z,61.67
2023-01-17T10:38:37.809Z,64.85
2023-01-17T10:41:14.436Z,53.42
2023-01-17T10:43:48.839Z,55.92
2023-01-17T10:46:21.966Z,55.30
2023-01-17T10:48:55.381Z,54.53
2023-01-17T10:51:47.398Z,53.08
2023-01-17T10:54:28.472Z,44.95
2023-01-17T10:56:58.511Z,52.63
2023-01-17T10:59:30.370Z,48.08
2023-01-17T11:01:58.278Z,41.67
2023-01-17T11:04:35.353Z,42.88
2023-01-17T11:07:14.350Z,44.28
2023-01-17T11:09:44.092Z,46.08
2023-01-17T11:12:27.218Z,41.05
2023-01-17T11:15:16.133Z,43.47
2023-01-17T11:17:47.808Z,50.40
2023-01-17T11:20:19.299Z,41.90
2023-01-17T11:23:00.632Z,45.65
2023-01-17T11:25:30.710Z,45.22
2023-01-17T11:28:02.780Z,39.60
2023-01-17T11:30:30.421Z,41.22
2023-01-17T11:32:59.377Z,44.83
2023-01-17T11:35:29.370Z,37.92
2023-01-17T11:38:15.087Z,37.88
2023-01-17T11:40:44.334Z,38.40
2023-01-17T11:43:22.276Z,48.47
2023-01-17T11:46:05.694Z,46.25
2023-01-17T11:48:35.756Z,36.33
2023-01-17T11:51:04.728Z,39.78
2023-01-17T11:53:36.731Z,40.33
2023-01-17T11:56:08.295Z,41.17
2023-01-17T11:58:41.617Z,38.78
2023-01-17T12:01:35.375Z,40.58
2023-01-17T12:04:21.848Z,36.65
2023-01-17T12:07:12.693Z,36.67
2023-01-17T12:09:46.783Z,37.03
2023-01-17T12:12:21.486Z,41.22
2023-01-17T12:15:02.157Z,35.92
2023-01-17T12:17:45.299Z,37.75
2023-01-17T12:20:24.793Z,35.85
2023-01-17T12:23:12.689Z,36.22
2023-01-17T12:26:01.921Z,36.03
2023-01-17T12:29:05.204Z,39.50
2023-01-17T12:31:39.096Z,32.80
2023-01-17T12:34:22.049Z,41.00
2023-01-17T12:36:55.234Z,37.05
2023-01-17T12:39:29.199Z,39.25
2023-01-17T12:42:03.784Z,37.22
2023-01-17T12:44:45.130Z,34.63
2023-01-17T12:47:15.943Z,39.22
2023-01-17T12:49:50.685Z,38.53
2023-01-17T12:52:25.365Z,38.20
2023-01-17T12:54:58.430Z,33.08
2023-01-17T12:57:32.311Z,31.52
2023-01-17T13:00:05.449Z,36.03
2023-01-17T13:02:38.977Z,35.10
2023-01-17T13:05:12.211Z,38.78
2023-01-17T13:07:46.215Z,39.78
2023-01-17T13:10:24.492Z,36.40
2023-01-17T13:12:54.622Z,32.72
2023-01-17T13:15:25.709Z,45.97
2023-01-17T13:18:04.823Z,36.53
2023-01-17T13:20:46.765Z,37.78
2023-01-17T13:23:27.038Z,34.78
2023-01-17T13:25:55.815Z,36.47
2023-01-17T13:28:35.667Z,31.50
2023-01-17T13:31:29.920Z,33.35
2023-01-17T13:34:55.115Z,31.85
2023-01-17T13:37:46.595Z,32.58
2023-01-17T13:40:35.342Z,31.50
2023-01-17T13:43:05.015Z,36.13
2023-01-17T13:45:34.821Z,29.30
2023-01-17T13:48:26.053Z,29.92
2023-01-17T13:50:56.626Z,28.23
2023-01-17T13:53:54.115Z,32.20
2023-01-17T13:56:31.270Z,30.70
2023-01-17T13:59:04.704Z,27.10
2023-01-17T14:01:52.790Z,27.45
2023-01-17T14:04:25.541Z,30.17
2023-01-17T14:06:59.287Z,26.17
2023-01-17T14:09:31.157Z,31.63
2023-01-17T14:12:06.192Z,30.17
2023-01-17T14:15:00.745Z,29.45
2023-01-17T14:17:54.551Z,28.15
2023-01-17T14:20:52.246Z,26.48
2023-01-17T14:23:35.801Z,26.88
2023-01-17T14:26:28.472Z,27.75
2023-01-17T14:28:58.702Z,29.63
2023-01-17T14:31:28.611Z,25.48
2023-01-17T14:34:11.284Z,24.90
2023-01-17T14:36:39.877Z,28.73
2023-01-17T14:39:22.660Z,27.17
2023-01-17T14:41:52.311Z,26.70
2023-01-17T14:44:20.808Z,27.63
2023-01-17T14:46:49.443Z,24.50
2023-01-17T14:49:22.731Z,21.92
2023-01-17T14:52:00.644Z,21.75
2023-01-17T14:54:30.324Z,25.92
2023-01-17T14:57:16.095Z,25.98
2023-01-17T14:59:44.815Z,23.23
2023-01-17T15:02:17.080Z,23.90
2023-01-17T15:04:53.665Z,21.50
2023-01-17T15:07:22.932Z,22.52
2023-01-17T15:09:52.284Z,18.50
2023-01-17T15:12:19.769Z,20.98
2023-01-17T15:14:47.679Z,19.05
2023-01-17T15:17:20.065Z,19.90
2023-01-17T15:19:53.373Z,18.80
2023-01-17T15:22:21.275Z,21.13
2023-01-17T15:24:52.394Z,17.63
2023-01-17T15:27:20.013Z,19.50
2023-01-17T15:29:48.919Z,20.67
2023-01-17T15:32:20.467Z,18.88
2023-01-17T15:34:50.035Z,19.60
2023-01-17T15:37:30.021Z,16.73
2023-01-17T15:40:15.506Z,18.27
2023-01-17T15:42:44.885Z,18.40
2023-01-17T15:45:17.488Z,19.80
2023-01-17T15:47:46.604Z,18.92
2023-01-17T15:50:28.018Z,16.73
2023-01-17T15:52:57.880Z,18.25
2023-01-17T15:55:31.801Z,16.40
2023-01-17T15:57:59.535Z,17.08
2023-01-17T16:00:29.815Z,19.55
2023-01-17T16:02:58.520Z,20.83
2023-01-17T16:05:37.700Z,21.27
2023-01-17T16:08:33.174Z,18.80
2023-01-17T16:11:04.750Z,19.40
2023-01-17T16:13:35.798Z,20.83
2023-01-17T16:16:16.326Z,19.90
2023-01-17T16:18:46.111Z,18.35
2023-01-17T16:21:26.916Z,19.50
2023-01-17T16:23:55.994Z,18.88
2023-01-17T16:26:25.927Z,19.98
2023-01-17T16:28:53.933Z,15.45
2023-01-17T16:31:22.953Z,22.77
2023-01-17T16:33:51.014Z,20.80
2023-01-17T16:36:19.805Z,17.85
2023-01-17T16:38:50.231Z,18.95
2023-01-17T16:41:18.491Z,16.88
2023-01-17T16:43:58.360Z,20.73
2023-01-17T16:46:27.779Z,18.20
2023-01-17T16:48:56.694Z,19.13
2023-01-17T16:51:24.564Z,14.30
2023-01-17T16:53:52.632Z,19.30
2023-01-17T16:56:20.995Z,16.00
2023-01-17T16:58:52.252Z,16.53
2023-01-17T17:01:19.784Z,18.10
2023-01-17T17:03:47.300Z,18.13
2023-01-17T17:06:15.348Z,18.02
2023-01-17T17:08:43.416Z,17.17
2023-01-17T17:11:13.651Z,16.15
2023-01-17T17:13:42.626Z,19.38
2023-01-17T17:16:14.263Z,19.27
2023-01-17T17:18:42.043Z,14.15
2023-01-17T17:21:10.110Z,14.40
2023-01-17T17:23:39.274Z,18.80
2023-01-17T17:26:07.785Z,18.65
2023-01-17T17:28:35.775Z,16.20
2023-01-17T17:31:06.271Z,15.48
2023-01-17T17:33:35.326Z,14.45
2023-01-17T17:36:05.274Z,18.45
2023-01-17T17:38:32.923Z,17.50
2023-01-17T17:41:09.292Z,15.18
2023-01-17T17:43:39.255Z,17.50
2023-01-17T17:48:36.699Z,15.30
2023-01-17T17:51:05.520Z,15.75
2023-01-17T17:53:33.115Z,15.40
2023-01-17T17:56:07.257Z,16.42
2023-01-17T17:58:35.119Z,16.98
2023-01-17T18:01:04.340Z,21.05
2023-01-17T18:03:32.239Z,18.48
2023-01-17T18:06:06.872Z,19.92
2023-01-17T18:08:36.074Z,22.05
2023-01-17T18:11:05.306Z,20.17
2023-01-17T18:13:34.208Z,23.65
2023-01-17T18:16:04.206Z,18.00
2023-01-17T18:18:31.836Z,15.55
2023-01-17T18:21:08.802Z,18.02
2023-01-17T18:23:38.363Z,17.17
2023-01-17T18:26:06.353Z,20.60
2023-01-17T18:28:33.969Z,16.35
2023-01-17T18:31:07.985Z,19.40
2023-01-17T18:33:36.074Z,16.88
2023-01-17T18:36:08.965Z,19.95
2023-01-17T18:38:37.560Z,15.43
2023-01-17T18:41:06.448Z,18.83
2023-01-17T18:43:33.978Z,19.15
2023-01-17T18:46:02.119Z,19.27
2023-01-17T18:48:29.758Z,19.42
2023-01-17T18:50:58.632Z,17.38
2023-01-17T18:53:29.516Z,16.27
2023-01-17T18:55:58.969Z,17.40
2023-01-17T18:58:27.392Z,16.45
2023-01-17T19:00:55.035Z,16.70
2023-01-17T19:03:27.172Z,15.93
2023-01-17T19:05:54.977Z,17.58
2023-01-17T19:08:22.520Z,20.42
2023-01-17T19:10:51.549Z,22.02
2023-01-17T19:13:19.299Z,16.83
2023-01-17T19:15:46.756Z,16.85
2023-01-17T19:18:14.764Z,16.25
2023-01-17T19:20:42.270Z,16.35
2023-01-17T19:23:10.402Z,18.33
2023-01-17T19:25:38.080Z,14.10
2023-01-17T19:28:07.275Z,18.10
2023-01-17T19:30:34.721Z,13.02
2023-01-17T19:33:02.205Z,18.38
2023-01-17T19:35:29.784Z,14.00
2023-01-17T19:37:58.049Z,18.08
2023-01-17T19:40:25.914Z,17.75
2023-01-17T19:42:53.398Z,15.88
2023-01-17T19:45:22.995Z,16.75
2023-01-17T19:47:50.579Z,15.68
2023-01-17T19:50:18.173Z,16.42
2023-01-17T19:52:45.677Z,17.08
2023-01-17T19:55:13.338Z,15.55
2023-01-17T19:57:40.856Z,16.50
2023-01-17T20:00:12.608Z,18.38
2023-01-17T20:02:41.536Z,17.02
2023-01-17T20:05:09.516Z,15.10
2023-01-17T20:07:37.009Z,15.48
2023-01-17T20:10:05.243Z,15.93
2023-01-17T20:12:32.721Z,12.30
2023-01-17T20:15:00.171Z,17.60
2023-01-17T20:17:27.655Z,13.32
2023-01-17T20:19:56.710Z,13.95
2023-01-17T20:22:24.250Z,15.50
2023-01-17T20:24:51.800Z,15.88
2023-01-17T20:27:19.327Z,15.20
2023-01-17T20:29:46.779Z,14.65
2023-01-17T20:32:14.383Z,14.60
2023-01-17T20:34:44.040Z,15.68
2023-01-17T20:37:14.183Z,15.02
2023-01-17T20:39:41.661Z,13.80
2023-01-17T20:42:09.072Z,14.55
2023-01-17T20:44:36.520Z,16.33
2023-01-17T20:47:04.005Z,12.80
2023-01-17T20:49:31.470Z,10.98
2023-01-17T20:51:58.984Z,11.95
2023-01-17T20:54:28.005Z,13.02
2023-01-17T20:56:55.544Z,12.75
2023-01-17T20:59:23.100Z,11.40
2023-01-17T21:01:51.299Z,13.27
2023-01-17T21:04:19.055Z,10.07
2023-01-17T21:06:46.526Z,9.32
2023-01-17T21:09:15.157Z,11.23
2023-01-17T21:11:44.102Z,11.10
2023-01-17T21:14:11.594Z,12.95
2023-01-17T21:16:39.319Z,11.32
2023-01-17T21:19:07.913Z,9.48
2023-01-17T21:21:35.411Z,11.73
2023-01-17T21:24:02.897Z,10.23
2023-01-17T21:26:30.339Z,10.73
2023-01-17T21:28:59.563Z,11.82
2023-01-17T21:31:28.999Z,9.50
2023-01-17T21:33:58.499Z,8.80
2023-01-17T21:36:28.071Z,10.68
2023-01-17T21:38:57.258Z,12.18
2023-01-17T21:41:26.259Z,11.05
2023-01-17T21:44:00.366Z,10.55
2023-01-17T21:46:29.371Z,11.35
2023-01-17T21:48:57.404Z,11.85
2023-01-17T21:51:25.563Z,11.60
2023-01-17T21:53:53.210Z,9.98
2023-01-17T21:56:20.857Z,10.50
2023-01-17T21:58:50.052Z,10.63
2023-01-17T22:01:20.110Z,10.23
2023-01-17T22:03:49.521Z,13.18
2023-01-17T22:06:17.189Z,12.40
2023-01-17T22:08:45.168Z,11.32
2023-01-17T22:11:14.874Z,8.90
2023-01-17T22:13:44.452Z,12.13
2023-01-17T22:18:42.667Z,14.13
2023-01-17T22:21:13.204Z,10.18
2023-01-17T22:23:45.291Z,10.20
2023-01-17T22:26:12.938Z,11.50
2023-01-17T22:28:41.092Z,12.90
2023-01-17T22:31:09.993Z,11.57
2023-01-17T22:33:38.244Z,11.10
2023-01-17T22:36:08.606Z,10.95
2023-01-17T22:38:36.523Z,11.98
2023-01-17T22:41:05.774Z,11.95
2023-01-17T22:43:33.198Z,12.00
2023-01-17T22:46:00.768Z,11.95
2023-01-17T22:48:30.069Z,10.68
2023-01-17T22:50:58.157Z,10.82
2023-01-17T22:53:27.650Z,10.20
2023-01-17T22:56:02.058Z,10.23
2023-01-17T22:58:30.515Z,10.70
2023-01-17T23:01:04.851Z,10.02
2023-01-17T23:03:32.900Z,10.57
2023-01-17T23:06:11.695Z,10.60
2023-01-17T23:08:42.164Z,10.43
2023-01-17T23:11:21.858Z,10.30
2023-01-17T23:13:49.330Z,12.85
2023-01-17T23:16:16.787Z,11.45
2023-01-17T23:18:44.489Z,12.15
2023-01-17T23:21:11.942Z,11.75
2023-01-17T23:23:40.862Z,10.85
2023-01-17T23:26:08.349Z,13.45
2023-01-17T23:28:35.865Z,14.23
2023-01-17T23:31:03.621Z,12.55
2023-01-17T23:33:31.173Z,16.92
2023-01-17T23:35:58.629Z,14.27
2023-01-17T23:38:26.113Z,11.40
2023-01-17T23:41:00.653Z,14.70
2023-01-17T23:43:28.071Z,14.52
2023-01-17T23:45:55.476Z,13.43
2023-01-17T23:48:24.091Z,10.98
2023-01-17T23:50:52.511Z,13.52
2023-01-17T23:53:21.184Z,12.48
2023-01-17T23:55:50.183Z,12.60
2023-01-17T23:58:21.031Z,13.23
